sensor_id;sensor_type;location;lat;lon;timestamp;P1;durP1;ratioP1;P2;durP2;ratioP2
840;SDS011;406;48.566;13.450;2022-10-16T00:00:40;8.93;;;3.33;;
840;SDS011;406;48.566;13.450;2022-10-16T00:03:06;6.03;;;3.93;;
840;SDS011;406;48.566;13.450;2022-10-16T00:05:37;33.67;;;6.43;;
840;SDS011;406;48.566;13.450;2022-10-16T00:08:04;19.83;;;5.00;;
840;SDS011;406;48.566;13.450;2022-10-16T00:10:29;60.63;;;6.53;;
840;SDS011;406;48.566;13.450;2022-10-16T00:12:55;21.20;;;5.13;;
840;SDS011;406;48.566;13.450;2022-10-16T00:15:20;11.87;;;4.00;;
840;SDS011;406;48.566;13.450;2022-10-16T00:17:46;9.40;;;3.67;;
840;SDS011;406;48.566;13.450;2022-10-16T00:20:11;18.50;;;4.70;;
840;SDS011;406;48.566;13.450;2022-10-16T00:22:55;31.50;;;6.60;;
840;SDS011;406;48.566;13.450;2022-10-16T00:25:21;31.67;;;7.07;;
840;SDS011;406;48.566;13.450;2022-10-16T00:27:46;7.27;;;4.43;;
840;SDS011;406;48.566;13.450;2022-10-16T00:30:12;7.50;;;3.90;;
840;SDS011;406;48.566;13.450;2022-10-16T00:32:37;13.37;;;5.17;;
840;SDS011;406;48.566;13.450;2022-10-16T00:35:03;63.60;;;7.57;;
840;SDS011;406;48.566;13.450;2022-10-16T00:37:29;12.80;;;4.30;;
840;SDS011;406;48.566;13.450;2022-10-16T00:39:54;13.87;;;3.80;;
840;SDS011;406;48.566;13.450;2022-10-16T00:42:19;10.90;;;4.00;;
840;SDS011;406;48.566;13.450;2022-10-16T00:44:50;34.30;;;6.23;;
840;SDS011;406;48.566;13.450;2022-10-16T00:47:27;5.33;;;3.30;;
840;SDS011;406;48.566;13.450;2022-10-16T00:50:13;9.50;;;3.33;;
840;SDS011;406;48.566;13.450;2022-10-16T00:52:43;9.73;;;3.77;;
840;SDS011;406;48.566;13.450;2022-10-16T00:55:10;6.53;;;4.30;;
840;SDS011;406;48.566;13.450;2022-10-16T00:57:36;7.50;;;4.00;;
840;SDS011;406;48.566;13.450;2022-10-16T01:00:04;27.70;;;5.57;;
840;SDS011;406;48.566;13.450;2022-10-16T01:02:31;6.40;;;4.13;;
840;SDS011;406;48.566;13.450;2022-10-16T01:04:57;5.33;;;3.57;;
840;SDS011;406;48.566;13.450;2022-10-16T01:07:30;4.93;;;3.77;;
840;SDS011;406;48.566;13.450;2022-10-16T01:12:33;25.90;;;6.17;;
840;SDS011;406;48.566;13.450;2022-10-16T01:15:19;5.53;;;3.57;;
840;SDS011;406;48.566;13.450;2022-10-16T01:17:57;8.20;;;3.53;;
840;SDS011;406;48.566;13.450;2022-10-16T01:23:06;31.37;;;5.07;;
840;SDS011;406;48.566;13.450;2022-10-16T01:25:50;49.13;;;7.27;;
840;SDS011;406;48.566;13.450;2022-10-16T01:28:28;117.07;;;12.37;;
840;SDS011;406;48.566;13.450;2022-10-16T01:31:00;69.20;;;8.07;;
840;SDS011;406;48.566;13.450;2022-10-16T01:33:28;87.90;;;10.50;;
840;SDS011;406;48.566;13.450;2022-10-16T01:36:03;50.13;;;6.63;;
840;SDS011;406;48.566;13.450;2022-10-16T01:38:34;41.03;;;7.50;;
840;SDS011;406;48.566;13.450;2022-10-16T01:41:15;46.60;;;6.57;;
840;SDS011;406;48.566;13.450;2022-10-16T01:43:48;27.50;;;5.00;;
840;SDS011;406;48.566;13.450;2022-10-16T01:46:16;34.83;;;8.40;;
840;SDS011;406;48.566;13.450;2022-10-16T01:48:43;36.10;;;7.63;;
840;SDS011;406;48.566;13.450;2022-10-16T01:51:10;26.83;;;5.67;;
840;SDS011;406;48.566;13.450;2022-10-16T01:53:39;67.50;;;9.50;;
840;SDS011;406;48.566;13.450;2022-10-16T01:56:06;29.80;;;6.40;;
840;SDS011;406;48.566;13.450;2022-10-16T01:58:35;20.87;;;5.60;;
840;SDS011;406;48.566;13.450;2022-10-16T02:01:04;86.40;;;12.57;;
840;SDS011;406;48.566;13.450;2022-10-16T02:03:30;34.13;;;6.43;;
840;SDS011;406;48.566;13.450;2022-10-16T02:05:57;51.07;;;7.30;;
840;SDS011;406;48.566;13.450;2022-10-16T02:08:24;26.60;;;6.90;;
840;SDS011;406;48.566;13.450;2022-10-16T02:10:54;39.20;;;6.90;;
840;SDS011;406;48.566;13.450;2022-10-16T02:16:11;29.80;;;6.87;;
840;SDS011;406;48.566;13.450;2022-10-16T02:18:37;121.10;;;18.07;;
840;SDS011;406;48.566;13.450;2022-10-16T02:21:25;30.03;;;8.43;;
840;SDS011;406;48.566;13.450;2022-10-16T02:23:59;62.07;;;11.30;;
840;SDS011;406;48.566;13.450;2022-10-16T02:26:47;117.33;;;13.47;;
840;SDS011;406;48.566;13.450;2022-10-16T02:29:15;32.27;;;7.57;;
840;SDS011;406;48.566;13.450;2022-10-16T02:31:43;73.03;;;11.10;;
840;SDS011;406;48.566;13.450;2022-10-16T02:34:12;14.37;;;6.90;;
840;SDS011;406;48.566;13.450;2022-10-16T02:36:39;53.80;;;8.40;;
840;SDS011;406;48.566;13.450;2022-10-16T02:39:06;48.07;;;9.30;;
840;SDS011;406;48.566;13.450;2022-10-16T02:41:32;48.40;;;7.20;;
840;SDS011;406;48.566;13.450;2022-10-16T02:43:57;45.47;;;8.97;;
840;SDS011;406;48.566;13.450;2022-10-16T02:46:23;125.00;;;15.37;;
840;SDS011;406;48.566;13.450;2022-10-16T02:48:48;76.30;;;12.50;;
840;SDS011;406;48.566;13.450;2022-10-16T02:51:14;45.30;;;7.20;;
840;SDS011;406;48.566;13.450;2022-10-16T02:53:39;22.33;;;6.20;;
840;SDS011;406;48.566;13.450;2022-10-16T02:56:05;26.30;;;6.23;;
840;SDS011;406;48.566;13.450;2022-10-16T02:58:31;19.70;;;5.10;;
840;SDS011;406;48.566;13.450;2022-10-16T03:00:56;13.00;;;5.90;;
840;SDS011;406;48.566;13.450;2022-10-16T03:03:22;25.33;;;6.07;;
840;SDS011;406;48.566;13.450;2022-10-16T03:05:48;19.47;;;7.10;;
840;SDS011;406;48.566;13.450;2022-10-16T03:08:13;29.27;;;7.73;;
840;SDS011;406;48.566;13.450;2022-10-16T03:10:39;34.50;;;8.73;;
840;SDS011;406;48.566;13.450;2022-10-16T03:13:05;12.07;;;5.57;;
840;SDS011;406;48.566;13.450;2022-10-16T03:15:30;14.33;;;6.70;;
840;SDS011;406;48.566;13.450;2022-10-16T03:17:59;42.37;;;9.97;;
840;SDS011;406;48.566;13.450;2022-10-16T03:20:24;12.53;;;5.50;;
840;SDS011;406;48.566;13.450;2022-10-16T03:22:50;22.27;;;6.70;;
840;SDS011;406;48.566;13.450;2022-10-16T03:25:16;15.77;;;6.97;;
840;SDS011;406;48.566;13.450;2022-10-16T03:27:41;17.40;;;6.33;;
840;SDS011;406;48.566;13.450;2022-10-16T03:30:07;31.50;;;7.10;;
840;SDS011;406;48.566;13.450;2022-10-16T03:32:33;33.07;;;6.53;;
840;SDS011;406;48.566;13.450;2022-10-16T03:34:59;30.33;;;5.17;;
840;SDS011;406;48.566;13.450;2022-10-16T03:37:24;68.83;;;8.97;;
840;SDS011;406;48.566;13.450;2022-10-16T03:39:50;15.17;;;5.67;;
840;SDS011;406;48.566;13.450;2022-10-16T03:42:15;52.23;;;8.50;;
840;SDS011;406;48.566;13.450;2022-10-16T03:44:40;19.13;;;5.63;;
840;SDS011;406;48.566;13.450;2022-10-16T03:47:06;120.70;;;18.03;;
840;SDS011;406;48.566;13.450;2022-10-16T03:49:31;25.57;;;5.70;;
840;SDS011;406;48.566;13.450;2022-10-16T03:51:57;22.77;;;6.60;;
840;SDS011;406;48.566;13.450;2022-10-16T03:54:22;53.00;;;10.83;;
840;SDS011;406;48.566;13.450;2022-10-16T03:56:48;42.40;;;7.47;;
840;SDS011;406;48.566;13.450;2022-10-16T03:59:13;18.80;;;5.60;;
840;SDS011;406;48.566;13.450;2022-10-16T04:01:39;31.37;;;6.90;;
840;SDS011;406;48.566;13.450;2022-10-16T04:04:05;16.57;;;6.07;;
840;SDS011;406;48.566;13.450;2022-10-16T04:06:30;23.87;;;7.77;;
840;SDS011;406;48.566;13.450;2022-10-16T04:08:56;45.07;;;7.90;;
840;SDS011;406;48.566;13.450;2022-10-16T04:11:21;31.93;;;5.87;;
840;SDS011;406;48.566;13.450;2022-10-16T04:13:47;22.23;;;5.40;;
840;SDS011;406;48.566;13.450;2022-10-16T04:16:13;25.97;;;7.90;;
840;SDS011;406;48.566;13.450;2022-10-16T04:18:38;32.87;;;7.17;;
840;SDS011;406;48.566;13.450;2022-10-16T04:21:04;34.40;;;6.10;;
840;SDS011;406;48.566;13.450;2022-10-16T04:23:31;26.23;;;5.67;;
840;SDS011;406;48.566;13.450;2022-10-16T04:25:57;66.83;;;10.20;;
840;SDS011;406;48.566;13.450;2022-10-16T04:28:22;182.73;;;24.37;;
840;SDS011;406;48.566;13.450;2022-10-16T04:30:48;66.03;;;9.77;;
840;SDS011;406;48.566;13.450;2022-10-16T04:33:13;71.10;;;10.93;;
840;SDS011;406;48.566;13.450;2022-10-16T04:35:39;182.77;;;23.30;;
840;SDS011;406;48.566;13.450;2022-10-16T04:38:04;38.77;;;8.13;;
840;SDS011;406;48.566;13.450;2022-10-16T04:40:30;32.50;;;7.53;;
840;SDS011;406;48.566;13.450;2022-10-16T04:43:01;122.83;;;15.73;;
840;SDS011;406;48.566;13.450;2022-10-16T04:45:26;19.70;;;5.60;;
840;SDS011;406;48.566;13.450;2022-10-16T04:47:52;11.60;;;4.90;;
840;SDS011;406;48.566;13.450;2022-10-16T04:50:17;29.43;;;6.00;;
840;SDS011;406;48.566;13.450;2022-10-16T04:53:00;35.40;;;5.73;;
840;SDS011;406;48.566;13.450;2022-10-16T04:55:25;15.17;;;4.70;;
840;SDS011;406;48.566;13.450;2022-10-16T04:57:51;23.77;;;5.83;;
840;SDS011;406;48.566;13.450;2022-10-16T05:00:16;25.87;;;6.10;;
840;SDS011;406;48.566;13.450;2022-10-16T05:02:42;35.47;;;8.30;;
840;SDS011;406;48.566;13.450;2022-10-16T05:05:07;36.03;;;7.53;;
840;SDS011;406;48.566;13.450;2022-10-16T05:07:33;18.07;;;5.83;;
840;SDS011;406;48.566;13.450;2022-10-16T05:09:58;93.13;;;13.17;;
840;SDS011;406;48.566;13.450;2022-10-16T05:12:24;40.13;;;6.50;;
840;SDS011;406;48.566;13.450;2022-10-16T05:14:49;38.17;;;5.90;;
840;SDS011;406;48.566;13.450;2022-10-16T05:17:15;16.47;;;4.80;;
840;SDS011;406;48.566;13.450;2022-10-16T05:19:40;40.00;;;7.50;;
840;SDS011;406;48.566;13.450;2022-10-16T05:22:06;69.87;;;11.27;;
840;SDS011;406;48.566;13.450;2022-10-16T05:24:31;14.33;;;5.30;;
840;SDS011;406;48.566;13.450;2022-10-16T05:26:57;8.30;;;4.70;;
840;SDS011;406;48.566;13.450;2022-10-16T05:29:22;28.50;;;5.50;;
840;SDS011;406;48.566;13.450;2022-10-16T05:31:51;8.10;;;4.70;;
840;SDS011;406;48.566;13.450;2022-10-16T05:34:17;11.93;;;5.30;;
840;SDS011;406;48.566;13.450;2022-10-16T05:36:43;22.90;;;6.23;;
840;SDS011;406;48.566;13.450;2022-10-16T05:39:10;11.00;;;4.70;;
840;SDS011;406;48.566;13.450;2022-10-16T05:41:36;64.40;;;11.00;;
840;SDS011;406;48.566;13.450;2022-10-16T05:44:03;22.30;;;6.43;;
840;SDS011;406;48.566;13.450;2022-10-16T05:46:30;21.13;;;5.70;;
840;SDS011;406;48.566;13.450;2022-10-16T05:48:55;15.00;;;4.53;;
840;SDS011;406;48.566;13.450;2022-10-16T05:51:21;23.60;;;6.00;;
840;SDS011;406;48.566;13.450;2022-10-16T05:53:46;20.20;;;5.40;;
840;SDS011;406;48.566;13.450;2022-10-16T05:56:12;24.40;;;6.40;;
840;SDS011;406;48.566;13.450;2022-10-16T05:58:38;18.40;;;6.90;;
840;SDS011;406;48.566;13.450;2022-10-16T06:01:06;30.20;;;6.60;;
840;SDS011;406;48.566;13.450;2022-10-16T06:03:33;25.63;;;6.13;;
840;SDS011;406;48.566;13.450;2022-10-16T06:05:59;27.70;;;6.50;;
840;SDS011;406;48.566;13.450;2022-10-16T06:08:24;43.03;;;8.07;;
840;SDS011;406;48.566;13.450;2022-10-16T06:11:03;51.90;;;7.87;;
840;SDS011;406;48.566;13.450;2022-10-16T06:13:30;61.90;;;11.97;;
840;SDS011;406;48.566;13.450;2022-10-16T06:15:56;72.70;;;10.33;;
840;SDS011;406;48.566;13.450;2022-10-16T06:18:23;34.40;;;7.80;;
840;SDS011;406;48.566;13.450;2022-10-16T06:20:49;25.33;;;6.87;;
840;SDS011;406;48.566;13.450;2022-10-16T06:23:14;25.93;;;8.03;;
840;SDS011;406;48.566;13.450;2022-10-16T06:25:40;33.70;;;9.07;;
840;SDS011;406;48.566;13.450;2022-10-16T06:28:05;70.83;;;12.83;;
840;SDS011;406;48.566;13.450;2022-10-16T06:30:30;63.03;;;10.37;;
840;SDS011;406;48.566;13.450;2022-10-16T06:32:56;34.07;;;7.43;;
840;SDS011;406;48.566;13.450;2022-10-16T06:35:22;33.40;;;9.03;;
840;SDS011;406;48.566;13.450;2022-10-16T06:37:47;17.63;;;6.50;;
840;SDS011;406;48.566;13.450;2022-10-16T06:40:13;26.70;;;6.70;;
840;SDS011;406;48.566;13.450;2022-10-16T06:42:39;23.57;;;6.93;;
840;SDS011;406;48.566;13.450;2022-10-16T06:45:05;25.87;;;6.37;;
840;SDS011;406;48.566;13.450;2022-10-16T06:47:31;55.13;;;9.20;;
840;SDS011;406;48.566;13.450;2022-10-16T06:49:57;28.00;;;7.30;;
840;SDS011;406;48.566;13.450;2022-10-16T06:52:22;26.43;;;7.63;;
840;SDS011;406;48.566;13.450;2022-10-16T06:54:48;9.73;;;5.90;;
840;SDS011;406;48.566;13.450;2022-10-16T06:57:14;16.93;;;5.80;;
840;SDS011;406;48.566;13.450;2022-10-16T06:59:40;9.70;;;5.70;;
840;SDS011;406;48.566;13.450;2022-10-16T07:02:05;16.13;;;6.50;;
840;SDS011;406;48.566;13.450;2022-10-16T07:04:32;16.23;;;5.83;;
840;SDS011;406;48.566;13.450;2022-10-16T07:06:59;9.43;;;5.50;;
840;SDS011;406;48.566;13.450;2022-10-16T07:09:25;8.80;;;5.90;;
840;SDS011;406;48.566;13.450;2022-10-16T07:11:51;7.07;;;5.30;;
840;SDS011;406;48.566;13.450;2022-10-16T07:14:18;24.03;;;7.90;;
840;SDS011;406;48.566;13.450;2022-10-16T07:16:44;11.50;;;8.30;;
840;SDS011;406;48.566;13.450;2022-10-16T07:19:10;19.80;;;8.43;;
840;SDS011;406;48.566;13.450;2022-10-16T07:21:37;8.30;;;6.50;;
840;SDS011;406;48.566;13.450;2022-10-16T07:24:04;15.23;;;7.00;;
840;SDS011;406;48.566;13.450;2022-10-16T07:26:32;13.57;;;6.57;;
840;SDS011;406;48.566;13.450;2022-10-16T07:28:59;13.30;;;6.73;;
840;SDS011;406;48.566;13.450;2022-10-16T07:31:26;10.47;;;6.10;;
840;SDS011;406;48.566;13.450;2022-10-16T07:33:52;9.43;;;6.07;;
840;SDS011;406;48.566;13.450;2022-10-16T07:36:18;9.77;;;6.27;;
840;SDS011;406;48.566;13.450;2022-10-16T07:38:44;8.93;;;6.33;;
840;SDS011;406;48.566;13.450;2022-10-16T07:41:11;6.73;;;5.93;;
840;SDS011;406;48.566;13.450;2022-10-16T07:43:38;8.13;;;6.03;;
840;SDS011;406;48.566;13.450;2022-10-16T07:46:04;14.07;;;8.40;;
840;SDS011;406;48.566;13.450;2022-10-16T07:48:30;8.67;;;5.37;;
840;SDS011;406;48.566;13.450;2022-10-16T07:51:00;5.50;;;4.60;;
840;SDS011;406;48.566;13.450;2022-10-16T07:53:27;6.97;;;5.20;;
840;SDS011;406;48.566;13.450;2022-10-16T07:55:57;7.43;;;5.10;;
840;SDS011;406;48.566;13.450;2022-10-16T07:58:27;7.20;;;5.53;;
840;SDS011;406;48.566;13.450;2022-10-16T08:00:53;8.30;;;5.50;;
840;SDS011;406;48.566;13.450;2022-10-16T08:03:19;10.40;;;5.60;;
840;SDS011;406;48.566;13.450;2022-10-16T08:05:44;5.57;;;4.97;;
840;SDS011;406;48.566;13.450;2022-10-16T08:08:14;9.47;;;6.20;;
840;SDS011;406;48.566;13.450;2022-10-16T08:10:40;10.43;;;7.20;;
840;SDS011;406;48.566;13.450;2022-10-16T08:13:06;9.37;;;7.83;;
840;SDS011;406;48.566;13.450;2022-10-16T08:15:31;8.97;;;7.20;;
840;SDS011;406;48.566;13.450;2022-10-16T08:17:58;10.87;;;8.00;;
840;SDS011;406;48.566;13.450;2022-10-16T08:20:25;12.10;;;7.80;;
840;SDS011;406;48.566;13.450;2022-10-16T08:22:51;15.90;;;8.97;;
840;SDS011;406;48.566;13.450;2022-10-16T08:25:17;13.67;;;10.00;;
840;SDS011;406;48.566;13.450;2022-10-16T08:27:42;12.20;;;8.80;;
840;SDS011;406;48.566;13.450;2022-10-16T08:30:08;16.00;;;9.80;;
840;SDS011;406;48.566;13.450;2022-10-16T08:32:34;16.90;;;9.17;;
840;SDS011;406;48.566;13.450;2022-10-16T08:34:59;13.67;;;9.00;;
840;SDS011;406;48.566;13.450;2022-10-16T08:37:29;12.10;;;8.27;;
840;SDS011;406;48.566;13.450;2022-10-16T08:39:55;9.77;;;7.80;;
840;SDS011;406;48.566;13.450;2022-10-16T08:45:34;12.10;;;8.37;;
840;SDS011;406;48.566;13.450;2022-10-16T08:48:26;13.67;;;8.80;;
840;SDS011;406;48.566;13.450;2022-10-16T08:51:03;14.40;;;8.70;;
840;SDS011;406;48.566;13.450;2022-10-16T08:53:41;14.03;;;9.07;;
840;SDS011;406;48.566;13.450;2022-10-16T08:56:09;11.80;;;7.80;;
840;SDS011;406;48.566;13.450;2022-10-16T08:58:34;12.60;;;7.80;;
840;SDS011;406;48.566;13.450;2022-10-16T09:01:01;10.60;;;7.17;;
840;SDS011;406;48.566;13.450;2022-10-16T09:11:35;18.83;;;9.70;;
840;SDS011;406;48.566;13.450;2022-10-16T09:17:19;15.03;;;8.70;;
840;SDS011;406;48.566;13.450;2022-10-16T09:20:04;11.90;;;8.07;;
840;SDS011;406;48.566;13.450;2022-10-16T09:22:38;13.87;;;8.40;;
840;SDS011;406;48.566;13.450;2022-10-16T09:25:11;14.90;;;7.37;;
840;SDS011;406;48.566;13.450;2022-10-16T09:27:38;13.93;;;9.00;;
840;SDS011;406;48.566;13.450;2022-10-16T09:30:11;11.07;;;8.17;;
840;SDS011;406;48.566;13.450;2022-10-16T09:32:41;12.17;;;7.83;;
840;SDS011;406;48.566;13.450;2022-10-16T09:35:14;12.03;;;8.90;;
840;SDS011;406;48.566;13.450;2022-10-16T09:37:45;15.37;;;8.70;;
840;SDS011;406;48.566;13.450;2022-10-16T09:40:35;11.60;;;8.53;;
840;SDS011;406;48.566;13.450;2022-10-16T09:45:53;14.03;;;9.13;;
840;SDS011;406;48.566;13.450;2022-10-16T09:48:22;10.60;;;8.07;;
840;SDS011;406;48.566;13.450;2022-10-16T09:50:58;12.37;;;8.00;;
840;SDS011;406;48.566;13.450;2022-10-16T09:53:26;16.53;;;9.20;;
840;SDS011;406;48.566;13.450;2022-10-16T09:56:04;13.87;;;8.17;;
840;SDS011;406;48.566;13.450;2022-10-16T09:58:31;16.13;;;7.50;;
840;SDS011;406;48.566;13.450;2022-10-16T10:00:58;9.57;;;6.40;;
840;SDS011;406;48.566;13.450;2022-10-16T10:03:33;10.00;;;6.70;;
840;SDS011;406;48.566;13.450;2022-10-16T10:06:04;8.00;;;6.50;;
840;SDS011;406;48.566;13.450;2022-10-16T10:08:32;8.37;;;5.80;;
840;SDS011;406;48.566;13.450;2022-10-16T10:10:57;8.50;;;5.70;;
840;SDS011;406;48.566;13.450;2022-10-16T10:13:24;8.40;;;5.43;;
840;SDS011;406;48.566;13.450;2022-10-16T10:15:50;9.57;;;5.50;;
840;SDS011;406;48.566;13.450;2022-10-16T10:18:20;8.30;;;6.10;;
840;SDS011;406;48.566;13.450;2022-10-16T10:20:57;9.67;;;7.40;;
840;SDS011;406;48.566;13.450;2022-10-16T10:23:24;8.90;;;6.90;;
840;SDS011;406;48.566;13.450;2022-10-16T10:31:14;9.70;;;6.60;;
840;SDS011;406;48.566;13.450;2022-10-16T10:33:45;7.30;;;5.97;;
840;SDS011;406;48.566;13.450;2022-10-16T10:39:00;8.83;;;6.43;;
840;SDS011;406;48.566;13.450;2022-10-16T10:55:21;9.13;;;5.27;;
840;SDS011;406;48.566;13.450;2022-10-16T11:00:49;11.33;;;6.03;;
840;SDS011;406;48.566;13.450;2022-10-16T11:06:20;7.23;;;4.70;;
840;SDS011;406;48.566;13.450;2022-10-16T11:08:52;9.50;;;5.90;;
840;SDS011;406;48.566;13.450;2022-10-16T11:11:22;6.73;;;5.20;;
840;SDS011;406;48.566;13.450;2022-10-16T11:19:10;7.90;;;5.20;;
840;SDS011;406;48.566;13.450;2022-10-16T11:21:49;6.40;;;4.30;;
840;SDS011;406;48.566;13.450;2022-10-16T11:27:15;8.80;;;5.10;;
840;SDS011;406;48.566;13.450;2022-10-16T11:29:51;8.13;;;4.67;;
840;SDS011;406;48.566;13.450;2022-10-16T11:32:23;5.63;;;4.07;;
840;SDS011;406;48.566;13.450;2022-10-16T11:34:55;6.90;;;5.37;;
840;SDS011;406;48.566;13.450;2022-10-16T11:37:25;6.90;;;3.90;;
840;SDS011;406;48.566;13.450;2022-10-16T11:39:57;6.30;;;3.80;;
840;SDS011;406;48.566;13.450;2022-10-16T11:42:41;6.13;;;4.17;;
840;SDS011;406;48.566;13.450;2022-10-16T11:48:02;8.73;;;4.87;;
840;SDS011;406;48.566;13.450;2022-10-16T11:50:44;7.10;;;4.57;;
840;SDS011;406;48.566;13.450;2022-10-16T11:53:20;7.17;;;4.40;;
840;SDS011;406;48.566;13.450;2022-10-16T11:55:46;8.50;;;4.03;;
840;SDS011;406;48.566;13.450;2022-10-16T11:58:14;7.13;;;4.60;;
840;SDS011;406;48.566;13.450;2022-10-16T12:00:47;8.37;;;4.40;;
840;SDS011;406;48.566;13.450;2022-10-16T12:03:22;5.30;;;4.00;;
840;SDS011;406;48.566;13.450;2022-10-16T12:08:48;9.47;;;5.30;;
840;SDS011;406;48.566;13.450;2022-10-16T12:16:37;7.03;;;3.97;;
840;SDS011;406;48.566;13.450;2022-10-16T12:19:18;5.90;;;4.33;;
840;SDS011;406;48.566;13.450;2022-10-16T12:21:44;4.43;;;3.93;;
840;SDS011;406;48.566;13.450;2022-10-16T12:26:57;6.20;;;4.10;;
840;SDS011;406;48.566;13.450;2022-10-16T12:31:57;5.70;;;4.50;;
840;SDS011;406;48.566;13.450;2022-10-16T12:34:26;6.17;;;4.07;;
840;SDS011;406;48.566;13.450;2022-10-16T12:37:08;5.27;;;4.13;;
840;SDS011;406;48.566;13.450;2022-10-16T12:39:35;5.90;;;3.57;;
840;SDS011;406;48.566;13.450;2022-10-16T12:42:03;6.27;;;4.37;;
840;SDS011;406;48.566;13.450;2022-10-16T12:44:33;7.50;;;4.30;;
840;SDS011;406;48.566;13.450;2022-10-16T12:47:00;4.17;;;3.73;;
840;SDS011;406;48.566;13.450;2022-10-16T12:51:55;5.80;;;4.20;;
840;SDS011;406;48.566;13.450;2022-10-16T12:54:23;3.90;;;3.03;;
840;SDS011;406;48.566;13.450;2022-10-16T12:56:58;3.40;;;2.80;;
840;SDS011;406;48.566;13.450;2022-10-16T12:59:42;7.13;;;3.20;;
840;SDS011;406;48.566;13.450;2022-10-16T13:02:39;5.57;;;3.70;;
840;SDS011;406;48.566;13.450;2022-10-16T13:05:21;6.43;;;2.73;;
840;SDS011;406;48.566;13.450;2022-10-16T13:08:16;4.00;;;2.27;;
840;SDS011;406;48.566;13.450;2022-10-16T13:13:25;3.00;;;2.70;;
840;SDS011;406;48.566;13.450;2022-10-16T13:16:01;5.73;;;2.87;;
840;SDS011;406;48.566;13.450;2022-10-16T13:21:47;4.80;;;2.60;;
840;SDS011;406;48.566;13.450;2022-10-16T13:24:28;5.30;;;2.83;;
840;SDS011;406;48.566;13.450;2022-10-16T13:30:00;3.00;;;2.30;;
840;SDS011;406;48.566;13.450;2022-10-16T13:32:28;2.40;;;1.93;;
840;SDS011;406;48.566;13.450;2022-10-16T13:34:54;4.63;;;2.20;;
840;SDS011;406;48.566;13.450;2022-10-16T13:37:21;2.40;;;1.53;;
840;SDS011;406;48.566;13.450;2022-10-16T13:39:48;7.13;;;2.10;;
840;SDS011;406;48.566;13.450;2022-10-16T13:44:51;2.60;;;2.07;;
840;SDS011;406;48.566;13.450;2022-10-16T13:47:22;2.50;;;1.77;;
840;SDS011;406;48.566;13.450;2022-10-16T13:50:03;4.50;;;1.40;;
840;SDS011;406;48.566;13.450;2022-10-16T13:52:30;3.83;;;2.30;;
840;SDS011;406;48.566;13.450;2022-10-16T13:54:56;3.50;;;2.00;;
840;SDS011;406;48.566;13.450;2022-10-16T13:57:22;3.97;;;1.80;;
840;SDS011;406;48.566;13.450;2022-10-16T13:59:49;3.83;;;1.70;;
840;SDS011;406;48.566;13.450;2022-10-16T14:02:17;3.43;;;2.03;;
840;SDS011;406;48.566;13.450;2022-10-16T14:04:47;3.37;;;1.90;;
840;SDS011;406;48.566;13.450;2022-10-16T14:07:14;2.33;;;1.97;;
840;SDS011;406;48.566;13.450;2022-10-16T14:09:47;4.00;;;1.80;;
840;SDS011;406;48.566;13.450;2022-10-16T14:12:13;5.27;;;2.07;;
840;SDS011;406;48.566;13.450;2022-10-16T14:14:48;3.03;;;1.80;;
840;SDS011;406;48.566;13.450;2022-10-16T14:17:19;3.70;;;2.10;;
840;SDS011;406;48.566;13.450;2022-10-16T14:19:53;3.87;;;1.60;;
840;SDS011;406;48.566;13.450;2022-10-16T14:22:31;2.47;;;1.73;;
840;SDS011;406;48.566;13.450;2022-10-16T14:25:00;2.40;;;1.80;;
840;SDS011;406;48.566;13.450;2022-10-16T14:27:38;3.47;;;1.93;;
840;SDS011;406;48.566;13.450;2022-10-16T14:32:32;3.13;;;1.93;;
840;SDS011;406;48.566;13.450;2022-10-16T14:34:58;2.90;;;2.20;;
840;SDS011;406;48.566;13.450;2022-10-16T14:37:24;4.13;;;1.80;;
840;SDS011;406;48.566;13.450;2022-10-16T14:39:52;7.63;;;2.10;;
840;SDS011;406;48.566;13.450;2022-10-16T14:42:18;4.90;;;2.13;;
840;SDS011;406;48.566;13.450;2022-10-16T14:44:44;4.60;;;1.93;;
840;SDS011;406;48.566;13.450;2022-10-16T14:47:15;6.03;;;1.93;;
840;SDS011;406;48.566;13.450;2022-10-16T14:49:42;2.60;;;2.10;;
840;SDS011;406;48.566;13.450;2022-10-16T14:52:08;3.57;;;2.80;;
840;SDS011;406;48.566;13.450;2022-10-16T14:54:36;3.20;;;2.03;;
840;SDS011;406;48.566;13.450;2022-10-16T14:57:01;3.60;;;2.13;;
840;SDS011;406;48.566;13.450;2022-10-16T14:59:28;5.07;;;3.57;;
840;SDS011;406;48.566;13.450;2022-10-16T15:01:55;7.00;;;2.73;;
840;SDS011;406;48.566;13.450;2022-10-16T15:04:21;3.50;;;2.00;;
840;SDS011;406;48.566;13.450;2022-10-16T15:06:47;5.50;;;2.47;;
840;SDS011;406;48.566;13.450;2022-10-16T15:09:12;4.80;;;2.37;;
840;SDS011;406;48.566;13.450;2022-10-16T15:11:38;8.53;;;2.93;;
840;SDS011;406;48.566;13.450;2022-10-16T15:14:04;4.27;;;2.40;;
840;SDS011;406;48.566;13.450;2022-10-16T15:16:30;4.57;;;2.30;;
840;SDS011;406;48.566;13.450;2022-10-16T15:18:55;7.97;;;2.27;;
840;SDS011;406;48.566;13.450;2022-10-16T15:21:28;6.43;;;2.27;;
840;SDS011;406;48.566;13.450;2022-10-16T15:23:55;4.17;;;2.33;;
840;SDS011;406;48.566;13.450;2022-10-16T15:26:23;3.07;;;1.83;;
840;SDS011;406;48.566;13.450;2022-10-16T15:28:49;3.47;;;2.50;;
840;SDS011;406;48.566;13.450;2022-10-16T15:31:15;7.53;;;3.00;;
840;SDS011;406;48.566;13.450;2022-10-16T15:33:40;3.77;;;1.97;;
840;SDS011;406;48.566;13.450;2022-10-16T15:36:06;6.93;;;2.27;;
840;SDS011;406;48.566;13.450;2022-10-16T15:38:31;4.03;;;2.40;;
840;SDS011;406;48.566;13.450;2022-10-16T15:40:57;7.20;;;2.30;;
840;SDS011;406;48.566;13.450;2022-10-16T15:43:22;6.77;;;2.27;;
840;SDS011;406;48.566;13.450;2022-10-16T15:46:04;4.50;;;2.63;;
840;SDS011;406;48.566;13.450;2022-10-16T15:48:31;5.40;;;2.90;;
840;SDS011;406;48.566;13.450;2022-10-16T15:50:57;3.87;;;2.50;;
840;SDS011;406;48.566;13.450;2022-10-16T15:53:23;6.37;;;2.17;;
840;SDS011;406;48.566;13.450;2022-10-16T15:55:48;4.20;;;2.63;;
840;SDS011;406;48.566;13.450;2022-10-16T15:58:14;4.70;;;3.40;;
840;SDS011;406;48.566;13.450;2022-10-16T16:00:39;10.43;;;2.27;;
840;SDS011;406;48.566;13.450;2022-10-16T16:03:05;5.50;;;2.67;;
840;SDS011;406;48.566;13.450;2022-10-16T16:05:30;7.00;;;2.37;;
840;SDS011;406;48.566;13.450;2022-10-16T16:07:58;7.43;;;2.30;;
840;SDS011;406;48.566;13.450;2022-10-16T16:10:23;34.60;;;3.37;;
840;SDS011;406;48.566;13.450;2022-10-16T16:12:49;6.10;;;3.10;;
840;SDS011;406;48.566;13.450;2022-10-16T16:15:17;5.47;;;2.40;;
840;SDS011;406;48.566;13.450;2022-10-16T16:17:46;9.43;;;2.97;;
840;SDS011;406;48.566;13.450;2022-10-16T16:20:12;5.27;;;2.47;;
840;SDS011;406;48.566;13.450;2022-10-16T16:22:37;4.23;;;2.07;;
840;SDS011;406;48.566;13.450;2022-10-16T16:25:03;4.90;;;3.30;;
840;SDS011;406;48.566;13.450;2022-10-16T16:27:29;4.40;;;2.30;;
840;SDS011;406;48.566;13.450;2022-10-16T16:29:58;4.10;;;2.00;;
840;SDS011;406;48.566;13.450;2022-10-16T16:32:25;7.83;;;2.20;;
840;SDS011;406;48.566;13.450;2022-10-16T16:34:50;5.93;;;2.47;;
840;SDS011;406;48.566;13.450;2022-10-16T16:37:16;3.93;;;2.30;;
840;SDS011;406;48.566;13.450;2022-10-16T16:39:41;5.57;;;3.33;;
840;SDS011;406;48.566;13.450;2022-10-16T16:42:07;7.90;;;2.60;;
840;SDS011;406;48.566;13.450;2022-10-16T16:44:33;5.20;;;3.00;;
840;SDS011;406;48.566;13.450;2022-10-16T16:47:01;6.10;;;2.27;;
840;SDS011;406;48.566;13.450;2022-10-16T16:49:27;13.63;;;3.10;;
840;SDS011;406;48.566;13.450;2022-10-16T16:51:53;9.30;;;3.23;;
840;SDS011;406;48.566;13.450;2022-10-16T16:54:19;7.00;;;2.40;;
840;SDS011;406;48.566;13.450;2022-10-16T16:56:44;10.33;;;2.50;;
840;SDS011;406;48.566;13.450;2022-10-16T16:59:11;7.50;;;2.90;;
840;SDS011;406;48.566;13.450;2022-10-16T17:01:38;12.70;;;4.00;;